createdAt,value
2022-08-22T00:03:39.399Z,100.00
2022-08-22T00:08:50.310Z,100.00
2022-08-22T00:14:02.181Z,100.00
2022-08-22T00:19:30.118Z,100.00
2022-08-22T00:24:33.252Z,100.00
2022-08-22T00:29:48.437Z,100.00
2022-08-22T00:35:06.372Z,100.00
2022-08-22T00:40:18.722Z,100.00
2022-08-22T00:45:34.667Z,100.00
2022-08-22T00:51:14.681Z,100.00
2022-08-22T00:56:42.599Z,100.00
2022-08-22T01:01:53.379Z,100.00
2022-08-22T01:07:37.853Z,100.00
2022-08-22T01:12:48.920Z,100.00
2022-08-22T01:18:30.248Z,100.00
2022-08-22T01:23:48.180Z,100.00
2022-08-22T01:29:33.375Z,100.00
2022-08-22T01:34:54.746Z,100.00
2022-08-22T01:40:36.445Z,100.00
2022-08-22T01:46:24.844Z,100.00
2022-08-22T01:51:51.032Z,100.00
2022-08-22T01:57:01.983Z,100.00
2022-08-22T02:02:32.973Z,100.00
2022-08-22T02:07:49.363Z,100.00
2022-08-22T02:13:10.391Z,100.00
2022-08-22T02:18:23.915Z,100.00
2022-08-22T02:23:49.554Z,100.00
2022-08-22T02:29:15.594Z,100.00
2022-08-22T02:34:42.013Z,100.00
2022-08-22T02:40:07.887Z,100.00
2022-08-22T02:45:23.669Z,100.00
2022-08-22T02:50:48.315Z,100.00
2022-08-22T02:55:59.902Z,100.00
2022-08-22T03:01:24.505Z,100.00
2022-08-22T03:12:45.676Z,100.00
2022-08-22T03:17:56.344Z,100.00
2022-08-22T03:23:08.175Z,100.00
2022-08-22T03:28:16.859Z,100.00
2022-08-22T03:33:22.398Z,100.00
2022-08-22T03:38:45.497Z,100.00
2022-08-22T03:44:16.456Z,100.00
2022-08-22T03:49:34.182Z,100.00
2022-08-22T03:55:06.230Z,100.00
2022-08-22T04:00:32.722Z,100.00
2022-08-22T04:05:38.826Z,100.00
2022-08-22T04:11:02.595Z,100.00
2022-08-22T04:16:42.487Z,100.00
2022-08-22T04:22:22.978Z,100.00
2022-08-22T04:27:38.603Z,100.00
2022-08-22T04:32:48.274Z,100.00
2022-08-22T04:38:09.290Z,100.00
2022-08-22T04:43:59.766Z,100.00
2022-08-22T04:49:13.406Z,100.00
2022-08-22T04:54:54.280Z,100.00
2022-08-22T05:00:17.383Z,100.00
2022-08-22T05:05:26.833Z,100.00
2022-08-22T05:10:41.418Z,100.00
2022-08-22T05:15:49.828Z,100.00
2022-08-22T05:20:54.849Z,100.00
2022-08-22T05:26:03.347Z,100.00
2022-08-22T05:31:24.808Z,100.00
2022-08-22T05:36:31.428Z,100.00
2022-08-22T05:41:38.774Z,100.00
2022-08-22T05:46:44.972Z,100.00
2022-08-22T05:52:10.836Z,100.00
2022-08-22T05:57:38.137Z,100.00
2022-08-22T06:02:59.846Z,100.00
2022-08-22T06:08:15.553Z,100.00
2022-08-22T06:13:35.904Z,100.00
2022-08-22T06:18:42.439Z,100.00
2022-08-22T06:23:57.660Z,100.00
2022-08-22T06:29:02.631Z,100.00
2022-08-22T06:34:12.088Z,100.00
2022-08-22T06:39:30.975Z,100.00
2022-08-22T06:44:38.945Z,100.00
2022-08-22T06:49:46.653Z,100.00
2022-08-22T06:54:58.138Z,100.00
2022-08-22T07:00:10.653Z,100.00
2022-08-22T07:05:19.063Z,100.00
2022-08-22T07:10:23.951Z,100.00
2022-08-22T07:15:36.223Z,100.00
2022-08-22T07:20:46.788Z,100.00
2022-08-22T07:26:11.912Z,100.00
2022-08-22T07:31:45.431Z,100.00
2022-08-22T07:37:04.280Z,100.00
2022-08-22T07:42:19.723Z,100.00
2022-08-22T07:47:26.118Z,100.00
2022-08-22T07:52:37.415Z,100.00
2022-08-22T07:57:44.115Z,100.00
2022-08-22T08:02:51.718Z,100.00
2022-08-22T08:07:57.379Z,100.00
2022-08-22T08:13:05.611Z,100.00
2022-08-22T08:18:20.066Z,100.00
2022-08-22T08:23:25.858Z,100.00
2022-08-22T08:28:35.367Z,100.00
2022-08-22T08:33:42.050Z,84.82
2022-08-22T08:38:54.141Z,85.97
2022-08-22T08:44:17.992Z,97.72
2022-08-22T08:49:42.789Z,83.94
2022-08-22T09:09:13.687Z,93.95
2022-08-22T09:19:27.995Z,76.07
2022-08-22T09:24:48.101Z,58.37
2022-08-22T09:30:08.740Z,57.51
2022-08-22T09:35:33.389Z,71.75
2022-08-22T09:40:46.269Z,94.22
2022-08-22T09:46:02.398Z,73.06
2022-08-22T09:51:31.456Z,78.99
2022-08-22T09:57:02.533Z,76.18
2022-08-22T10:02:55.303Z,100.00
2022-08-22T10:08:26.311Z,95.55
2022-08-22T10:14:00.707Z,95.32
2022-08-22T10:19:38.554Z,98.74
2022-08-22T10:24:51.881Z,100.00
2022-08-22T10:30:16.362Z,88.49
2022-08-22T10:35:44.225Z,87.48
2022-08-22T10:40:52.947Z,95.34
2022-08-22T10:46:04.637Z,81.76
2022-08-22T10:51:19.533Z,83.71
2022-08-22T10:56:43.822Z,92.23
2022-08-22T11:02:02.695Z,100.00
2022-08-22T11:07:39.408Z,100.00
2022-08-22T11:13:09.823Z,93.78
2022-08-22T11:18:34.579Z,98.77
2022-08-22T11:23:45.511Z,94.14
2022-08-22T11:29:02.759Z,83.07
2022-08-22T11:34:31.981Z,70.94
2022-08-22T11:39:47.959Z,81.28
2022-08-22T11:44:59.294Z,72.74
2022-08-22T11:50:42.202Z,58.39
2022-08-22T11:56:12.807Z,69.82
2022-08-22T12:01:20.900Z,58.36
2022-08-22T12:06:56.362Z,60.80
2022-08-22T12:12:18.146Z,84.20
2022-08-22T12:18:01.363Z,89.83
2022-08-22T12:23:40.793Z,100.00
2022-08-22T12:29:15.572Z,99.30
2022-08-22T12:34:30.375Z,100.00
2022-08-22T12:39:36.338Z,100.00
2022-08-22T12:44:59.140Z,100.00
2022-08-22T12:50:25.964Z,90.53
2022-08-22T12:55:46.646Z,85.27
2022-08-22T13:00:50.985Z,81.30
2022-08-22T13:06:00.495Z,100.00
2022-08-22T13:11:12.452Z,100.00
2022-08-22T13:16:35.435Z,97.65
2022-08-22T13:21:48.369Z,94.96
2022-08-22T13:27:01.586Z,94.89
2022-08-22T13:32:05.377Z,96.44
2022-08-22T13:37:15.716Z,96.15
2022-08-22T13:42:30.462Z,74.92
2022-08-22T13:47:39.487Z,82.61
2022-08-22T13:53:07.403Z,90.26
2022-08-22T13:58:45.005Z,87.78
2022-08-22T14:03:55.418Z,84.33
2022-08-22T14:09:08.595Z,95.53
2022-08-22T14:14:11.904Z,100.00
2022-08-22T14:19:32.303Z,100.00
2022-08-22T14:25:21.309Z,100.00
2022-08-22T14:30:29.215Z,100.00
2022-08-22T14:35:38.177Z,97.72
2022-08-22T14:40:43.097Z,79.22
2022-08-22T14:45:55.010Z,92.44
2022-08-22T14:51:03.883Z,89.47
2022-08-22T14:56:11.268Z,76.06
2022-08-22T15:01:17.886Z,70.18
2022-08-22T15:06:37.063Z,93.17
2022-08-22T15:11:42.286Z,69.88
2022-08-22T15:17:08.205Z,86.21
2022-08-22T15:22:25.915Z,90.34
2022-08-22T15:27:33.789Z,94.48
2022-08-22T15:32:42.958Z,100.00
2022-08-22T15:38:11.254Z,100.00
2022-08-22T15:43:28.828Z,100.00
2022-08-22T15:48:41.018Z,100.00
2022-08-22T15:53:44.093Z,100.00
2022-08-22T15:59:27.190Z,100.00
2022-08-22T16:04:50.373Z,96.22
2022-08-22T16:09:57.860Z,98.57
2022-08-22T16:15:06.020Z,95.95
2022-08-22T16:25:17.062Z,73.62
2022-08-22T16:30:33.598Z,74.96
2022-08-22T16:36:14.252Z,73.93
2022-08-22T16:41:44.510Z,65.52
2022-08-22T16:46:49.607Z,65.45
2022-08-22T16:52:27.380Z,65.81
2022-08-22T16:58:06.009Z,60.46
2022-08-22T17:03:19.411Z,58.88
2022-08-22T17:08:25.985Z,57.93
2022-08-22T17:13:48.754Z,51.64
2022-08-22T17:19:01.898Z,48.08
2022-08-22T17:24:33.714Z,48.56
2022-08-22T17:29:58.086Z,46.94
2022-08-22T17:35:17.332Z,50.47
2022-08-22T17:40:37.703Z,52.42
2022-08-22T17:45:55.233Z,55.92
2022-08-22T17:51:03.954Z,66.39
2022-08-22T17:56:25.783Z,81.19
2022-08-22T18:01:43.695Z,93.99
2022-08-22T18:06:59.769Z,100.00
2022-08-22T18:12:27.138Z,100.00
2022-08-22T18:17:40.403Z,100.00
2022-08-22T18:23:04.997Z,100.00
2022-08-22T18:28:45.702Z,100.00
2022-08-22T18:33:59.795Z,100.00
2022-08-22T18:39:10.478Z,100.00
2022-08-22T18:44:38.547Z,100.00
2022-08-22T18:49:54.991Z,100.00
2022-08-22T18:55:19.431Z,100.00
2022-08-22T19:00:27.673Z,100.00
2022-08-22T19:05:46.200Z,100.00
2022-08-22T19:11:04.352Z,100.00
2022-08-22T19:16:07.622Z,100.00
2022-08-22T19:21:37.686Z,100.00
2022-08-22T19:26:44.600Z,100.00
2022-08-22T19:31:51.639Z,100.00
2022-08-22T19:37:30.523Z,100.00
2022-08-22T19:42:39.200Z,100.00
2022-08-22T19:47:53.644Z,100.00
2022-08-22T19:53:02.543Z,100.00
2022-08-22T19:58:20.950Z,100.00
2022-08-22T20:04:04.918Z,100.00
2022-08-22T20:09:46.197Z,100.00
2022-08-22T20:14:50.280Z,100.00
2022-08-22T20:25:41.512Z,100.00
2022-08-22T20:30:47.899Z,100.00
2022-08-22T20:35:59.954Z,100.00
2022-08-22T20:41:26.982Z,100.00
2022-08-22T20:46:46.603Z,100.00
2022-08-22T20:52:06.446Z,100.00
2022-08-22T20:57:16.852Z,100.00
2022-08-22T21:02:25.177Z,100.00
2022-08-22T21:07:40.785Z,100.00
2022-08-22T21:12:44.014Z,100.00
2022-08-22T21:17:47.364Z,100.00
2022-08-22T21:22:51.328Z,100.00
2022-08-22T21:27:55.877Z,100.00
2022-08-22T21:32:59.134Z,100.00
2022-08-22T21:38:03.078Z,100.00
2022-08-22T21:43:07.991Z,100.00
2022-08-22T21:48:33.981Z,100.00
2022-08-22T21:53:37.000Z,100.00
2022-08-22T21:58:43.189Z,100.00
2022-08-22T22:03:46.413Z,100.00
2022-08-22T22:08:50.859Z,100.00
2022-08-22T22:13:54.211Z,100.00
2022-08-22T22:18:58.051Z,100.00
2022-08-22T22:24:01.155Z,100.00
2022-08-22T22:29:04.879Z,100.00
2022-08-22T22:34:08.131Z,100.00
2022-08-22T22:39:11.733Z,100.00
2022-08-22T22:44:14.883Z,100.00
2022-08-22T22:49:19.440Z,100.00
2022-08-22T22:54:27.209Z,100.00
2022-08-22T22:59:30.687Z,100.00
2022-08-22T23:04:37.985Z,100.00
2022-08-22T23:09:44.781Z,100.00
2022-08-22T23:14:48.458Z,100.00
2022-08-22T23:19:52.318Z,100.00
2022-08-22T23:24:55.591Z,100.00
2022-08-22T23:29:58.976Z,100.00
2022-08-22T23:35:01.959Z,100.00
2022-08-22T23:40:08.805Z,100.00
2022-08-22T23:45:12.038Z,100.00
2022-08-22T23:50:15.391Z,100.00
2022-08-22T23:55:19.335Z,100.00
